createdAt,value
2023-01-04T00:01:36.587Z,61.97
2023-01-04T00:04:06.986Z,58.67
2023-01-04T00:06:36.559Z,66.30
2023-01-04T00:09:04.914Z,63.40
2023-01-04T00:11:33.548Z,61.40
2023-01-04T00:14:01.887Z,81.57
2023-01-04T00:16:30.676Z,74.63
2023-01-04T00:18:59.352Z,73.15
2023-01-04T00:21:31.137Z,81.93
2023-01-04T00:24:01.565Z,85.32
2023-01-04T00:26:32.052Z,82.22
2023-01-04T00:29:02.056Z,81.72
2023-01-04T00:31:30.827Z,81.18
2023-01-04T00:34:00.935Z,75.40
2023-01-04T00:36:31.052Z,81.50
2023-01-04T00:39:10.200Z,66.32
2023-01-04T00:44:29.845Z,80.25
2023-01-04T00:46:58.719Z,74.45
2023-01-04T00:49:27.328Z,72.25
2023-01-04T00:51:57.455Z,68.88
2023-01-04T00:54:26.031Z,68.43
2023-01-04T00:56:54.569Z,56.88
2023-01-04T00:59:23.341Z,79.57
2023-01-04T01:01:52.793Z,71.60
2023-01-04T01:04:23.620Z,69.30
2023-01-04T01:06:53.003Z,70.72
2023-01-04T01:09:23.960Z,55.63
2023-01-04T01:14:22.844Z,70.13
2023-01-04T01:16:57.223Z,68.25
2023-01-04T01:19:27.856Z,70.18
2023-01-04T01:21:57.528Z,84.55
2023-01-04T01:24:28.025Z,78.40
2023-01-04T01:26:57.400Z,81.82
2023-01-04T01:29:25.983Z,78.45
2023-01-04T01:31:54.866Z,78.85
2023-01-04T01:34:23.097Z,75.55
2023-01-04T01:36:51.716Z,68.85
2023-01-04T01:39:20.077Z,86.80
2023-01-04T01:41:50.325Z,104.13
2023-01-04T01:44:56.261Z,92.18
2023-01-04T01:47:26.874Z,75.13
2023-01-04T01:49:55.866Z,76.95
2023-01-04T01:52:27.445Z,99.07
2023-01-04T01:57:27.245Z,87.82
2023-01-04T01:59:57.522Z,95.75
2023-01-04T02:02:26.289Z,97.18
2023-01-04T02:04:54.866Z,90.93
2023-01-04T02:07:25.447Z,92.80
2023-01-04T02:09:53.736Z,103.07
2023-01-04T02:12:22.537Z,95.72
2023-01-04T02:14:52.695Z,105.32
2023-01-04T02:17:31.119Z,92.10
2023-01-04T02:20:24.152Z,91.55
2023-01-04T02:23:19.087Z,87.00
2023-01-04T02:26:17.627Z,79.65
2023-01-04T02:29:02.035Z,86.82
2023-01-04T02:31:37.198Z,82.20
2023-01-04T02:34:10.953Z,82.45
2023-01-04T02:36:42.539Z,76.40
2023-01-04T02:39:18.571Z,73.55
2023-01-04T02:41:51.763Z,73.47
2023-01-04T02:44:41.950Z,66.75
2023-01-04T02:47:13.698Z,78.75
2023-01-04T02:50:04.616Z,66.35
2023-01-04T02:52:34.484Z,61.78
2023-01-04T02:55:06.671Z,71.70
2023-01-04T02:57:44.913Z,64.43
2023-01-04T03:00:29.818Z,59.90
2023-01-04T03:03:29.927Z,59.28
2023-01-04T03:06:16.725Z,59.65
2023-01-04T03:08:51.382Z,62.78
2023-01-04T03:11:37.628Z,61.60
2023-01-04T03:14:32.269Z,62.65
2023-01-04T03:17:00.461Z,64.50
2023-01-04T03:19:47.310Z,64.70
2023-01-04T03:22:31.777Z,62.80
2023-01-04T03:25:18.791Z,61.17
2023-01-04T03:28:05.441Z,57.83
2023-01-04T03:30:54.484Z,54.80
2023-01-04T03:33:41.035Z,61.38
2023-01-04T03:36:21.722Z,62.20
2023-01-04T03:39:11.208Z,54.20
2023-01-04T03:42:03.333Z,48.15
2023-01-04T03:44:51.850Z,46.72
2023-01-04T03:47:41.541Z,47.92
2023-01-04T03:50:14.187Z,46.25
2023-01-04T03:52:45.126Z,48.83
2023-01-04T03:57:42.261Z,45.75
2023-01-04T04:00:13.367Z,46.90
2023-01-04T04:02:42.485Z,52.33
2023-01-04T04:05:33.600Z,55.13
2023-01-04T04:08:21.147Z,44.35
2023-01-04T04:10:49.764Z,45.78
2023-01-04T04:13:20.762Z,45.92
2023-01-04T04:15:49.433Z,44.90
2023-01-04T04:18:17.686Z,50.63
2023-01-04T04:20:46.374Z,48.55
2023-01-04T04:23:15.979Z,39.80
2023-01-04T04:25:44.485Z,45.30
2023-01-04T04:28:12.750Z,47.88
2023-01-04T04:30:41.229Z,49.60
2023-01-04T04:33:09.624Z,48.35
2023-01-04T04:35:38.125Z,51.92
2023-01-04T04:38:06.358Z,54.08
2023-01-04T04:40:53.904Z,52.72
2023-01-04T04:43:22.507Z,50.33
2023-01-04T04:45:51.217Z,48.70
2023-01-04T04:48:19.796Z,57.63
2023-01-04T04:50:48.381Z,52.20
2023-01-04T04:53:16.694Z,52.65
2023-01-04T04:55:46.766Z,49.50
2023-01-04T04:58:15.090Z,49.67
2023-01-04T05:00:44.070Z,48.17
2023-01-04T05:03:12.623Z,43.38
2023-01-04T05:05:41.385Z,52.13
2023-01-04T05:08:09.755Z,49.53
2023-01-04T05:10:38.988Z,47.33
2023-01-04T05:13:10.844Z,48.47
2023-01-04T05:15:41.583Z,51.80
2023-01-04T05:18:11.095Z,51.90
2023-01-04T05:20:39.769Z,50.25
2023-01-04T05:23:09.045Z,45.17
2023-01-04T05:25:37.741Z,49.55
2023-01-04T05:28:08.248Z,53.78
2023-01-04T05:30:51.290Z,52.35
2023-01-04T05:33:21.435Z,48.28
2023-01-04T05:35:50.537Z,47.50
2023-01-04T05:38:19.396Z,52.50
2023-01-04T05:40:48.340Z,48.95
2023-01-04T05:43:18.224Z,40.45
2023-01-04T05:45:50.211Z,44.72
2023-01-04T05:48:18.541Z,40.20
2023-01-04T05:50:47.393Z,40.78
2023-01-04T05:53:18.971Z,41.28
2023-01-04T05:55:49.220Z,34.47
2023-01-04T05:58:19.197Z,36.72
2023-01-04T06:00:47.707Z,34.67
2023-01-04T06:03:16.098Z,37.40
2023-01-04T06:05:44.652Z,37.38
2023-01-04T06:08:12.892Z,34.45
2023-01-04T06:10:41.542Z,33.00
2023-01-04T06:13:09.890Z,32.65
2023-01-04T06:15:43.169Z,34.63
2023-01-04T06:18:13.862Z,39.10
2023-01-04T06:20:44.124Z,38.47
2023-01-04T06:23:12.328Z,32.10
2023-01-04T06:25:40.917Z,34.45
2023-01-04T06:28:09.344Z,29.63
2023-01-04T06:30:39.282Z,33.50
2023-01-04T06:33:07.595Z,34.28
2023-01-04T06:35:36.786Z,32.63
2023-01-04T06:38:05.046Z,36.70
2023-01-04T06:40:33.592Z,36.00
2023-01-04T06:43:01.870Z,33.55
2023-01-04T06:45:30.744Z,32.13
2023-01-04T06:48:04.450Z,31.58
2023-01-04T06:50:36.293Z,30.73
2023-01-04T06:53:04.835Z,29.35
2023-01-04T06:55:33.763Z,36.88
2023-01-04T06:58:02.816Z,34.20
2023-01-04T07:00:31.988Z,32.83
2023-01-04T07:03:13.510Z,37.22
2023-01-04T07:05:49.096Z,33.35
2023-01-04T07:08:18.383Z,37.38
2023-01-04T07:10:48.100Z,32.15
2023-01-04T07:13:19.442Z,35.60
2023-01-04T07:15:49.016Z,32.38
2023-01-04T07:18:20.814Z,34.35
2023-01-04T07:20:49.731Z,33.53
2023-01-04T07:23:24.182Z,30.08
2023-01-04T07:25:53.825Z,28.98
2023-01-04T07:28:36.181Z,30.20
2023-01-04T07:31:07.668Z,29.83
2023-01-04T07:33:39.171Z,23.83
2023-01-04T07:36:13.524Z,24.85
2023-01-04T07:38:44.346Z,22.55
2023-01-04T07:41:14.054Z,22.40
2023-01-04T07:43:42.538Z,21.27
2023-01-04T07:46:11.634Z,22.98
2023-01-04T07:48:44.200Z,24.65
2023-01-04T07:51:13.175Z,26.00
2023-01-04T07:53:42.388Z,22.10
2023-01-04T07:56:16.764Z,21.65
2023-01-04T07:58:49.865Z,21.65
2023-01-04T08:01:20.678Z,22.02
2023-01-04T08:03:51.766Z,22.92
2023-01-04T08:06:22.539Z,23.17
2023-01-04T08:08:51.069Z,25.60
2023-01-04T08:11:22.795Z,23.65
2023-01-04T08:13:51.547Z,22.70
2023-01-04T08:16:25.332Z,26.10
2023-01-04T08:18:57.109Z,22.88
2023-01-04T08:21:27.383Z,25.73
2023-01-04T08:23:56.152Z,25.63
2023-01-04T08:26:24.795Z,72.72
2023-01-04T08:28:53.510Z,38.97
2023-01-04T08:31:23.605Z,31.98
2023-01-04T08:33:52.288Z,27.45
2023-01-04T08:36:27.108Z,22.23
2023-01-04T08:39:00.591Z,23.42
2023-01-04T08:44:19.295Z,21.90
2023-01-04T08:46:48.920Z,21.23
2023-01-04T08:49:18.271Z,22.38
2023-01-04T08:51:52.322Z,21.85
2023-01-04T08:54:21.176Z,24.00
2023-01-04T08:56:49.899Z,23.15
2023-01-04T08:59:18.669Z,21.55
2023-01-04T09:01:47.784Z,21.98
2023-01-04T09:04:16.331Z,20.45
2023-01-04T09:06:45.031Z,21.70
2023-01-04T09:09:14.829Z,22.00
2023-01-04T09:11:43.517Z,20.65
2023-01-04T09:14:14.116Z,19.20
2023-01-04T09:16:43.021Z,20.75
2023-01-04T09:19:15.150Z,22.67
2023-01-04T09:21:47.077Z,18.55
2023-01-04T09:24:16.942Z,26.05
2023-01-04T09:26:47.661Z,19.35
2023-01-04T09:29:16.216Z,16.07
2023-01-04T09:31:45.080Z,13.95
2023-01-04T09:34:16.481Z,14.85
2023-01-04T09:36:46.346Z,14.35
2023-01-04T09:39:24.450Z,14.55
2023-01-04T09:41:59.046Z,14.02
2023-01-04T09:47:34.456Z,10.93
2023-01-04T09:50:08.143Z,13.60
2023-01-04T09:52:44.563Z,12.57
2023-01-04T09:55:37.626Z,12.40
2023-01-04T09:58:15.099Z,11.60
2023-01-04T10:00:46.372Z,12.30
2023-01-04T10:03:17.756Z,11.98
2023-01-04T10:05:46.471Z,11.70
2023-01-04T10:08:17.818Z,11.32
2023-01-04T10:10:56.438Z,9.85
2023-01-04T10:13:40.074Z,9.65
2023-01-04T10:16:17.653Z,10.55
2023-01-04T10:19:36.969Z,14.93
2023-01-04T10:21:49.082Z,8.52
2023-01-04T10:24:36.823Z,11.07
2023-01-04T10:27:18.415Z,9.95
2023-01-04T10:29:54.867Z,13.50
2023-01-04T10:32:34.392Z,12.23
2023-01-04T10:35:03.957Z,10.43
2023-01-04T10:37:36.087Z,11.82
2023-01-04T10:40:14.054Z,10.98
2023-01-04T10:42:50.334Z,13.93
2023-01-04T10:45:22.656Z,14.05
2023-01-04T10:47:57.755Z,12.85
2023-01-04T10:50:30.752Z,12.88
2023-01-04T10:53:04.077Z,11.35
2023-01-04T10:55:37.982Z,11.80
2023-01-04T10:58:13.853Z,14.02
2023-01-04T11:00:45.582Z,13.43
2023-01-04T11:03:20.014Z,13.32
2023-01-04T11:05:52.846Z,12.52
2023-01-04T11:08:27.778Z,12.45
2023-01-04T11:10:59.886Z,16.13
2023-01-04T11:13:29.934Z,21.13
2023-01-04T11:16:01.458Z,16.05
2023-01-04T11:18:30.334Z,19.17
2023-01-04T11:20:59.127Z,14.43
2023-01-04T11:23:27.524Z,13.27
2023-01-04T11:25:59.097Z,14.32
2023-01-04T11:28:31.243Z,18.15
2023-01-04T11:31:05.532Z,17.80
2023-01-04T11:33:53.526Z,15.77
2023-01-04T11:36:39.927Z,15.23
2023-01-04T11:39:18.917Z,13.93
2023-01-04T11:42:00.753Z,13.20
2023-01-04T11:44:33.606Z,15.48
2023-01-04T11:47:10.893Z,12.98
2023-01-04T11:49:39.301Z,14.77
2023-01-04T11:52:08.656Z,12.82
2023-01-04T11:54:37.208Z,11.77
2023-01-04T11:57:11.605Z,10.32
2023-01-04T11:59:41.987Z,11.93
2023-01-04T12:05:26.190Z,10.37
2023-01-04T12:07:59.269Z,10.40
2023-01-04T12:10:29.809Z,11.10
2023-01-04T12:13:02.425Z,14.43
2023-01-04T12:15:37.041Z,10.70
2023-01-04T12:18:08.028Z,10.38
2023-01-04T12:20:37.595Z,9.65
2023-01-04T12:23:06.857Z,10.73
2023-01-04T12:25:40.496Z,8.30
2023-01-04T12:28:30.099Z,7.22
2023-01-04T12:31:28.684Z,9.63
2023-01-04T12:33:58.781Z,9.02
2023-01-04T12:37:03.105Z,9.25
2023-01-04T12:39:43.936Z,14.43
2023-01-04T12:42:25.011Z,15.20
2023-01-04T12:45:24.479Z,19.48
2023-01-04T12:48:13.087Z,17.00
2023-01-04T12:51:31.597Z,10.75
2023-01-04T12:54:02.237Z,10.20
2023-01-04T12:57:08.253Z,9.37
2023-01-04T12:59:38.746Z,8.25
2023-01-04T13:02:18.575Z,8.95
2023-01-04T13:04:49.303Z,9.55
2023-01-04T13:07:22.298Z,8.15
2023-01-04T13:09:56.288Z,8.20
2023-01-04T13:13:01.056Z,6.82
2023-01-04T13:15:42.670Z,7.50
2023-01-04T13:18:30.454Z,8.00
2023-01-04T13:21:01.390Z,7.57
2023-01-04T13:23:32.061Z,6.97
2023-01-04T13:26:33.753Z,6.47
2023-01-04T13:29:12.034Z,13.48
2023-01-04T13:31:46.904Z,11.13
2023-01-04T13:34:24.686Z,8.73
2023-01-04T13:37:17.370Z,9.25
2023-01-04T13:39:47.991Z,13.30
2023-01-04T13:42:25.320Z,9.13
2023-01-04T13:45:39.642Z,9.60
2023-01-04T13:48:12.425Z,8.15
2023-01-04T13:50:47.500Z,9.93
2023-01-04T13:53:22.842Z,9.32
2023-01-04T13:55:53.160Z,9.77
2023-01-04T13:58:23.299Z,10.50
2023-01-04T14:00:54.937Z,9.18
2023-01-04T14:03:29.047Z,11.95
2023-01-04T14:06:04.688Z,11.18
2023-01-04T14:08:39.737Z,9.98
2023-01-04T14:11:36.907Z,15.32
2023-01-04T14:14:05.997Z,14.60
2023-01-04T14:16:35.005Z,15.63
2023-01-04T14:19:40.402Z,16.40
2023-01-04T14:22:40.010Z,11.73
2023-01-04T14:25:56.727Z,10.70
2023-01-04T14:28:38.855Z,12.85
2023-01-04T14:31:30.183Z,19.13
2023-01-04T14:34:00.594Z,15.48
2023-01-04T14:36:32.787Z,11.45
2023-01-04T14:39:13.509Z,13.45
2023-01-04T14:41:46.013Z,9.23
2023-01-04T14:44:21.152Z,15.57
2023-01-04T14:46:51.593Z,10.38
2023-01-04T14:49:22.470Z,9.32
2023-01-04T14:51:53.492Z,8.90
2023-01-04T14:54:25.397Z,7.93
2023-01-04T14:56:54.820Z,7.00
2023-01-04T14:59:25.728Z,7.03
2023-01-04T15:01:55.067Z,8.97
2023-01-04T15:04:25.790Z,8.48
2023-01-04T15:06:56.762Z,8.07
2023-01-04T15:09:25.707Z,6.38
2023-01-04T15:11:55.417Z,7.43
2023-01-04T15:14:27.999Z,7.55
2023-01-04T15:16:56.698Z,7.00
2023-01-04T15:19:25.768Z,5.32
2023-01-04T15:21:54.621Z,7.25
2023-01-04T15:24:23.512Z,5.88
2023-01-04T15:26:52.598Z,5.90
2023-01-04T15:29:22.641Z,8.48
2023-01-04T15:31:52.773Z,8.23
2023-01-04T15:34:23.272Z,15.17
2023-01-04T15:36:52.786Z,15.98
2023-01-04T15:39:21.886Z,18.58
2023-01-04T15:42:04.392Z,20.48
2023-01-04T15:44:34.054Z,27.90
2023-01-04T15:47:04.420Z,16.48
2023-01-04T15:49:38.561Z,14.23
2023-01-04T15:52:07.372Z,16.83
2023-01-04T15:54:37.625Z,15.02
2023-01-04T15:57:06.582Z,15.02
2023-01-04T15:59:35.536Z,13.20
2023-01-04T16:02:05.698Z,14.50
2023-01-04T16:04:34.495Z,13.73
2023-01-04T16:07:03.009Z,10.25
2023-01-04T16:09:31.884Z,12.18
2023-01-04T16:12:18.159Z,14.63
2023-01-04T16:14:46.687Z,13.45
2023-01-04T16:17:16.465Z,19.45
2023-01-04T16:19:45.209Z,16.58
2023-01-04T16:22:13.941Z,13.60
2023-01-04T16:25:09.926Z,11.23
2023-01-04T16:27:35.397Z,12.43
2023-01-04T16:30:05.436Z,12.02
2023-01-04T16:32:41.774Z,9.48
2023-01-04T16:35:13.045Z,11.27
2023-01-04T16:37:43.084Z,11.20
2023-01-04T16:40:13.334Z,12.17
2023-01-04T16:42:41.937Z,11.73
2023-01-04T16:45:11.992Z,9.68
2023-01-04T16:47:43.948Z,10.55
2023-01-04T16:50:13.649Z,10.07
2023-01-04T16:52:42.229Z,10.35
2023-01-04T16:55:12.036Z,10.95
2023-01-04T16:57:40.514Z,11.77
2023-01-04T17:00:10.624Z,10.35
2023-01-04T17:02:39.786Z,10.32
2023-01-04T17:05:10.773Z,11.32
2023-01-04T17:07:42.311Z,9.87
2023-01-04T17:10:13.236Z,8.70
2023-01-04T17:12:49.447Z,9.65
2023-01-04T17:18:08.106Z,8.07
2023-01-04T17:20:41.021Z,8.65
2023-01-04T17:23:10.081Z,9.65
2023-01-04T17:25:38.844Z,7.97
2023-01-04T17:28:07.376Z,9.27
2023-01-04T17:30:39.230Z,8.55
2023-01-04T17:35:41.561Z,8.00
2023-01-04T17:38:10.545Z,9.45
2023-01-04T17:40:39.743Z,24.58
2023-01-04T17:43:09.024Z,23.83
2023-01-04T17:45:38.442Z,16.20
2023-01-04T17:48:08.235Z,14.48
2023-01-04T17:50:39.761Z,12.80
2023-01-04T17:53:08.361Z,9.40
2023-01-04T17:55:38.188Z,15.77
2023-01-04T17:58:10.055Z,8.73
2023-01-04T18:00:42.825Z,19.15
2023-01-04T18:03:12.228Z,15.43
2023-01-04T18:05:52.037Z,14.18
2023-01-04T18:08:21.611Z,12.48
2023-01-04T18:11:07.323Z,14.20
2023-01-04T18:13:36.929Z,14.63
2023-01-04T18:16:23.939Z,11.40
2023-01-04T18:18:58.104Z,12.82
2023-01-04T18:21:31.065Z,11.93
2023-01-04T18:24:35.504Z,11.48
2023-01-04T18:29:42.227Z,9.15
2023-01-04T18:32:13.630Z,11.20
2023-01-04T18:34:43.221Z,9.52
2023-01-04T18:37:16.393Z,7.90
2023-01-04T18:39:45.919Z,10.18
2023-01-04T18:42:15.122Z,8.88
2023-01-04T18:44:51.077Z,9.07
2023-01-04T18:47:21.859Z,12.00
2023-01-04T18:49:51.436Z,7.70
2023-01-04T18:52:22.594Z,9.00
2023-01-04T18:54:52.305Z,9.07
2023-01-04T18:57:22.823Z,7.32
2023-01-04T18:59:52.134Z,8.18
2023-01-04T19:02:22.367Z,8.77
2023-01-04T19:04:52.597Z,9.40
2023-01-04T19:07:23.642Z,6.95
2023-01-04T19:09:52.382Z,7.45
2023-01-04T19:12:21.596Z,8.60
2023-01-04T19:14:50.373Z,8.55
2023-01-04T19:17:21.668Z,12.00
2023-01-04T19:19:50.355Z,20.35
2023-01-04T19:22:19.121Z,12.13
2023-01-04T19:24:49.285Z,10.43
2023-01-04T19:27:19.844Z,7.93
2023-01-04T19:29:48.717Z,13.27
2023-01-04T19:32:21.343Z,16.80
2023-01-04T19:34:52.173Z,8.70
2023-01-04T19:37:21.552Z,9.55
2023-01-04T19:39:51.611Z,8.15
2023-01-04T19:42:21.153Z,10.20
2023-01-04T19:44:49.698Z,11.48
2023-01-04T19:47:19.258Z,8.82
2023-01-04T19:49:49.174Z,10.63
2023-01-04T19:52:18.063Z,11.73
2023-01-04T19:54:46.331Z,7.55
2023-01-04T19:57:16.272Z,7.00
2023-01-04T19:59:44.640Z,9.25
2023-01-04T20:02:13.765Z,8.77
2023-01-04T20:04:42.735Z,9.80
2023-01-04T20:07:12.109Z,12.75
2023-01-04T20:09:43.719Z,7.53
2023-01-04T20:12:12.808Z,10.40
2023-01-04T20:14:45.010Z,6.65
2023-01-04T20:17:16.091Z,7.57
2023-01-04T20:19:46.303Z,6.70
2023-01-04T20:22:17.687Z,10.90
2023-01-04T20:24:46.867Z,11.23
2023-01-04T20:27:16.162Z,8.43
2023-01-04T20:29:46.160Z,7.82
2023-01-04T20:32:15.104Z,10.00
2023-01-04T20:34:44.849Z,10.75
2023-01-04T20:37:14.082Z,10.80
2023-01-04T20:39:42.585Z,7.75
2023-01-04T20:42:29.068Z,7.82
2023-01-04T20:44:59.330Z,8.57
2023-01-04T20:47:30.503Z,8.52
2023-01-04T20:49:59.578Z,8.10
2023-01-04T20:52:30.027Z,8.55
2023-01-04T20:54:59.700Z,8.97
2023-01-04T20:57:28.774Z,8.02
2023-01-04T20:59:58.813Z,6.50
2023-01-04T21:02:30.230Z,8.73
2023-01-04T21:05:01.858Z,8.45
2023-01-04T21:07:31.086Z,10.85
2023-01-04T21:09:59.742Z,8.95
2023-01-04T21:12:29.463Z,8.35
2023-01-04T21:14:59.773Z,8.95
2023-01-04T21:17:29.369Z,8.18
2023-01-04T21:19:58.251Z,11.10
2023-01-04T21:22:27.196Z,10.52
2023-01-04T21:24:56.039Z,10.52
2023-01-04T21:27:24.933Z,7.07
2023-01-04T21:29:53.229Z,7.85
2023-01-04T21:32:23.391Z,9.98
2023-01-04T21:34:54.094Z,7.00
2023-01-04T21:37:25.116Z,6.25
2023-01-04T21:39:57.180Z,8.73
2023-01-04T21:42:26.317Z,7.47
2023-01-04T21:44:55.523Z,9.00
2023-01-04T21:47:28.581Z,7.65
2023-01-04T21:49:57.381Z,6.65
2023-01-04T21:52:26.475Z,9.20
2023-01-04T21:54:55.364Z,6.53
2023-01-04T21:57:24.411Z,6.88
2023-01-04T21:59:53.025Z,6.60
2023-01-04T22:02:22.434Z,7.32
2023-01-04T22:04:52.468Z,6.88
2023-01-04T22:07:21.303Z,5.93
2023-01-04T22:09:57.091Z,7.60
2023-01-04T22:12:26.486Z,10.13
2023-01-04T22:14:55.309Z,5.75
2023-01-04T22:17:24.037Z,7.40
2023-01-04T22:19:53.900Z,7.85
2023-01-04T22:22:22.786Z,10.50
2023-01-04T22:24:51.743Z,6.90
2023-01-04T22:27:21.006Z,6.55
2023-01-04T22:29:49.320Z,5.18
2023-01-04T22:32:18.684Z,5.95
2023-01-04T22:34:51.710Z,7.07
2023-01-04T22:37:24.533Z,7.20
2023-01-04T22:40:03.377Z,6.30
2023-01-04T22:42:34.812Z,7.85
2023-01-04T22:45:12.784Z,6.25
2023-01-04T22:47:42.911Z,5.55
2023-01-04T22:50:18.624Z,6.18
2023-01-04T22:52:51.035Z,6.15
2023-01-04T22:55:45.784Z,5.85
2023-01-04T22:58:26.569Z,5.78
2023-01-04T23:01:01.865Z,5.60
2023-01-04T23:03:30.910Z,5.75
2023-01-04T23:06:04.455Z,4.53
2023-01-04T23:08:38.859Z,5.82
2023-01-04T23:11:15.571Z,4.65
2023-01-04T23:13:44.248Z,4.97
2023-01-04T23:16:19.083Z,6.00
2023-01-04T23:18:50.010Z,5.13
2023-01-04T23:21:18.334Z,5.32
2023-01-04T23:23:52.649Z,5.53
2023-01-04T23:26:24.130Z,4.50
2023-01-04T23:28:55.989Z,5.50
2023-01-04T23:31:32.790Z,5.03
2023-01-04T23:34:07.640Z,5.07
2023-01-04T23:36:38.239Z,4.43
2023-01-04T23:39:14.033Z,4.55
2023-01-04T23:41:45.794Z,6.43
2023-01-04T23:44:19.505Z,6.15
2023-01-04T23:46:48.516Z,4.85
2023-01-04T23:49:17.271Z,4.65
2023-01-04T23:51:45.567Z,5.15
2023-01-04T23:54:15.641Z,4.82
2023-01-04T23:56:44.016Z,4.07
2023-01-04T23:59:14.742Z,5.22
